Time;durP1;ratioP1;P1;durP2;ratioP2;P2;SDS_P1;SDS_P2;PMS_P1;PMS_P2;Temp;Humidity;BMP_temperature;BMP_pressure;BME280_temperature;BME280_humidity;BME280_pressure;Samples;Min_cycle;Max_cycle;Signal;HPM_P1;HPM_P2
2021/11/26 00:01:03;;;;;;;43.83;14.55;;;;;;;;;;5034450;28;20087;-63
2021/11/26 00:03:31;;;;;;;42.55;13.77;;;;;;;;;;5034159;28;20498;-63
2021/11/26 00:05:58;;;;;;;48.95;15.65;;;;;;;;;;5034544;28;20045;-63
2021/11/26 00:08:25;;;;;;;49.05;13.80;;;;;;;;;;5050674;28;20064;-61
2021/11/26 00:10:53;;;;;;;47.10;13.73;;;;;;;;;;5066997;28;20416;-63
2021/11/26 00:13:26;;;;;;;46.85;14.10;;;;;;;;;;5054606;28;20067;-62
2021/11/26 00:16:03;;;;;;;49.53;14.40;;;;;;;;;;5054233;28;20053;-61
2021/11/26 00:18:31;;;;;;;50.28;14.75;;;;;;;;;;5050825;28;20081;-61
2021/11/26 00:20:59;;;;;;;39.60;13.25;;;;;;;;;;5052658;28;20060;-62
2021/11/26 00:23:26;;;;;;;56.67;15.90;;;;;;;;;;5062133;22;20438;-79
2021/11/26 00:25:54;;;;;;;59.72;16.60;;;;;;;;;;5036289;28;20041;-81
2021/11/26 00:28:21;;;;;;;45.50;15.57;;;;;;;;;;5036429;28;20134;-80
2021/11/26 00:30:48;;;;;;;43.65;14.20;;;;;;;;;;5037416;28;20050;-81
2021/11/26 00:33:15;;;;;;;45.67;14.13;;;;;;;;;;5037738;28;20064;-80
2021/11/26 00:35:42;;;;;;;52.55;14.82;;;;;;;;;;5036397;28;20202;-80
2021/11/26 00:38:10;;;;;;;47.38;15.80;;;;;;;;;;5036096;28;20412;-80
2021/11/26 00:40:38;;;;;;;49.55;14.88;;;;;;;;;;5036133;28;20053;-81
2021/11/26 00:43:06;;;;;;;58.30;16.70;;;;;;;;;;5036707;28;20103;-81
2021/11/26 00:45:33;;;;;;;54.20;15.27;;;;;;;;;;5035919;28;20049;-83
2021/11/26 00:48:00;;;;;;;57.53;16.73;;;;;;;;;;5036324;28;20049;-80
2021/11/26 00:50:27;;;;;;;56.60;15.75;;;;;;;;;;5036169;28;20083;-81
2021/11/26 00:52:54;;;;;;;50.38;15.40;;;;;;;;;;5037272;28;20046;-81
2021/11/26 00:55:21;;;;;;;51.30;15.93;;;;;;;;;;5036824;28;20045;-81
2021/11/26 00:57:48;;;;;;;49.28;15.70;;;;;;;;;;5036595;28;20061;-82
2021/11/26 01:00:18;;;;;;;53.92;15.25;;;;;;;;;;5036089;28;20053;-81
2021/11/26 01:02:45;;;;;;;50.20;15.13;;;;;;;;;;5037112;28;20056;-80
2021/11/26 01:05:13;;;;;;;65.88;17.25;;;;;;;;;;5037137;28;20041;-80
2021/11/26 01:07:41;;;;;;;55.50;16.48;;;;;;;;;;5037307;28;20104;-82
2021/11/26 01:10:11;;;;;;;56.92;16.30;;;;;;;;;;5037983;28;20076;-81
2021/11/26 01:12:38;;;;;;;54.88;18.33;;;;;;;;;;5035579;28;20079;-80
2021/11/26 01:15:08;;;;;;;52.50;15.75;;;;;;;;;;5035548;28;20094;-81
2021/11/26 01:17:39;;;;;;;56.97;15.60;;;;;;;;;;5035675;28;20099;-80
2021/11/26 01:20:09;;;;;;;56.03;16.10;;;;;;;;;;5035918;28;20278;-81
2021/11/26 01:22:35;;;;;;;48.90;15.10;;;;;;;;;;5035572;28;20057;-81
2021/11/26 01:25:02;;;;;;;54.22;16.83;;;;;;;;;;5042632;28;20041;-80
2021/11/26 01:27:29;;;;;;;48.65;15.50;;;;;;;;;;5041057;28;20099;-80
2021/11/26 01:29:56;;;;;;;63.20;17.63;;;;;;;;;;5035512;28;20115;-79
2021/11/26 01:32:23;;;;;;;58.00;16.27;;;;;;;;;;5034602;28;20046;-80
2021/11/26 01:34:51;;;;;;;58.95;15.77;;;;;;;;;;5034413;28;20184;-82
2021/11/26 01:37:18;;;;;;;57.47;17.48;;;;;;;;;;5036840;28;20119;-79
2021/11/26 01:39:44;;;;;;;51.10;16.25;;;;;;;;;;5034063;28;20558;-80
2021/11/26 01:42:11;;;;;;;60.53;17.08;;;;;;;;;;5035750;28;20099;-81
2021/11/26 01:44:38;;;;;;;48.67;15.52;;;;;;;;;;5035203;28;20054;-81
2021/11/26 01:47:05;;;;;;;52.20;16.45;;;;;;;;;;5035001;28;20042;-81
2021/11/26 01:49:32;;;;;;;46.88;16.80;;;;;;;;;;5035168;28;20095;-81
2021/11/26 01:52:00;;;;;;;57.17;16.52;;;;;;;;;;5034668;28;20045;-81
2021/11/26 01:54:26;;;;;;;56.22;17.08;;;;;;;;;;5034901;28;20045;-80
2021/11/26 01:56:53;;;;;;;54.30;16.33;;;;;;;;;;5035947;28;20075;-82
2021/11/26 01:59:20;;;;;;;54.88;16.92;;;;;;;;;;5035335;28;20071;-80
2021/11/26 02:01:47;;;;;;;62.67;17.00;;;;;;;;;;5035174;28;20045;-80
2021/11/26 02:04:14;;;;;;;64.10;18.45;;;;;;;;;;5038476;28;20394;-80
2021/11/26 02:06:40;;;;;;;52.92;16.30;;;;;;;;;;5037351;28;20100;-80
2021/11/26 02:09:09;;;;;;;64.25;20.08;;;;;;;;;;5037528;28;20042;-81
2021/11/26 02:11:36;;;;;;;56.03;15.95;;;;;;;;;;5036179;28;20061;-80
2021/11/26 02:14:03;;;;;;;53.15;16.30;;;;;;;;;;5035762;28;20496;-80
2021/11/26 02:16:29;;;;;;;57.25;16.95;;;;;;;;;;5035519;28;20105;-80
2021/11/26 02:18:56;;;;;;;63.72;16.52;;;;;;;;;;5035655;28;20411;-80
2021/11/26 02:21:25;;;;;;;57.83;18.58;;;;;;;;;;5034599;28;20103;-80
2021/11/26 02:23:51;;;;;;;61.63;17.50;;;;;;;;;;5035300;28;20117;-81
2021/11/26 02:26:18;;;;;;;54.95;15.68;;;;;;;;;;5035468;28;20103;-79
2021/11/26 02:28:45;;;;;;;69.00;17.83;;;;;;;;;;5035747;28;20087;-80
2021/11/26 02:31:12;;;;;;;53.42;16.42;;;;;;;;;;5038354;28;20042;-80
2021/11/26 02:33:39;;;;;;;60.65;16.65;;;;;;;;;;5038097;28;20061;-81
2021/11/26 02:36:05;;;;;;;52.72;16.88;;;;;;;;;;5037465;28;20049;-81
2021/11/26 02:38:34;;;;;;;60.13;16.58;;;;;;;;;;5034737;28;20507;-80
2021/11/26 02:41:00;;;;;;;64.03;17.15;;;;;;;;;;5034912;28;20041;-80
2021/11/26 02:43:27;;;;;;;58.35;19.58;;;;;;;;;;5035011;28;20440;-80
2021/11/26 02:45:54;;;;;;;58.80;18.00;;;;;;;;;;5035347;28;20049;-80
2021/11/26 02:48:21;;;;;;;61.22;15.80;;;;;;;;;;5035792;28;20042;-80
2021/11/26 02:50:49;;;;;;;67.28;17.25;;;;;;;;;;5035077;28;20045;-80
2021/11/26 02:53:16;;;;;;;72.32;20.48;;;;;;;;;;5036076;28;20049;-80
2021/11/26 02:55:45;;;;;;;65.78;19.25;;;;;;;;;;5036971;28;20045;-81
2021/11/26 02:58:12;;;;;;;57.47;17.90;;;;;;;;;;5037354;28;20049;-80
2021/11/26 03:00:42;;;;;;;65.18;19.00;;;;;;;;;;5036926;28;20103;-80
2021/11/26 03:03:09;;;;;;;60.88;17.00;;;;;;;;;;5038091;28;20053;-80
2021/11/26 03:05:36;;;;;;;66.30;18.98;;;;;;;;;;5039904;28;20049;-81
2021/11/26 03:08:04;;;;;;;52.97;16.50;;;;;;;;;;5043076;28;20089;-80
2021/11/26 03:10:31;;;;;;;63.13;17.48;;;;;;;;;;5045232;28;20076;-80
2021/11/26 03:13:02;;;;;;;66.28;19.83;;;;;;;;;;5043738;28;20045;-81
2021/11/26 03:15:31;;;;;;;68.80;19.27;;;;;;;;;;5043915;28;20622;-81
2021/11/26 03:17:58;;;;;;;70.65;20.00;;;;;;;;;;5045139;28;20075;-80
2021/11/26 03:20:26;;;;;;;67.20;19.27;;;;;;;;;;5047211;28;20049;-80
2021/11/26 03:22:53;;;;;;;65.93;19.88;;;;;;;;;;5045717;28;20049;-80
2021/11/26 03:25:20;;;;;;;63.17;17.50;;;;;;;;;;5049301;28;20525;-80
2021/11/26 03:27:47;;;;;;;68.40;19.48;;;;;;;;;;5046108;28;20493;-80
2021/11/26 03:30:18;;;;;;;64.07;18.00;;;;;;;;;;5044076;28;20099;-80
2021/11/26 03:32:46;;;;;;;81.70;19.05;;;;;;;;;;5043131;28;20068;-80
2021/11/26 03:35:15;;;;;;;68.95;18.75;;;;;;;;;;5043236;28;20562;-79
2021/11/26 03:37:43;;;;;;;62.38;19.23;;;;;;;;;;5045392;28;20045;-80
2021/11/26 03:40:13;;;;;;;62.60;17.17;;;;;;;;;;5047573;28;20056;-81
2021/11/26 03:46:03;;;;;;;76.95;20.13;;;;;;;;;;5045234;28;20049;-81
2021/11/26 03:48:30;;;;;;;64.03;17.42;;;;;;;;;;5047981;28;20076;-81
2021/11/26 03:50:57;;;;;;;68.90;20.42;;;;;;;;;;5045543;28;20046;-82
2021/11/26 03:53:23;;;;;;;72.35;19.05;;;;;;;;;;5044918;28;20160;-80
2021/11/26 03:55:50;;;;;;;61.55;17.75;;;;;;;;;;5048848;28;20050;-80
2021/11/26 03:58:17;;;;;;;76.22;20.85;;;;;;;;;;5047807;28;20058;-81
2021/11/26 04:00:44;;;;;;;74.25;20.77;;;;;;;;;;5048307;28;20072;-80
2021/11/26 04:03:12;;;;;;;64.72;19.42;;;;;;;;;;5047138;28;20516;-79
2021/11/26 04:05:39;;;;;;;70.60;18.30;;;;;;;;;;5044648;28;20049;-80
2021/11/26 04:08:06;;;;;;;75.80;18.85;;;;;;;;;;5042952;28;20270;-79
2021/11/26 04:10:34;;;;;;;73.95;20.42;;;;;;;;;;5048342;28;20079;-79
2021/11/26 04:13:01;;;;;;;88.88;22.42;;;;;;;;;;5044924;28;20050;-81
2021/11/26 04:15:31;;;;;;;82.38;21.40;;;;;;;;;;5049879;28;20049;-81
2021/11/26 04:17:59;;;;;;;75.47;19.95;;;;;;;;;;5048648;28;20049;-80
2021/11/26 04:20:29;;;;;;;81.78;22.08;;;;;;;;;;5048431;28;20064;-80
2021/11/26 04:22:56;;;;;;;73.78;19.98;;;;;;;;;;5043319;28;20049;-81
2021/11/26 04:25:23;;;;;;;75.97;21.17;;;;;;;;;;5042826;28;20053;-82
2021/11/26 04:27:52;;;;;;;73.32;20.50;;;;;;;;;;5044005;28;20104;-81
2021/11/26 04:30:21;;;;;;;70.18;21.08;;;;;;;;;;5043727;28;20091;-81
2021/11/26 04:32:50;;;;;;;68.88;18.77;;;;;;;;;;5043382;28;20064;-80
2021/11/26 04:35:17;;;;;;;85.03;21.45;;;;;;;;;;5040101;28;20064;-81
2021/11/26 04:37:45;;;;;;;64.78;19.42;;;;;;;;;;5043039;28;20050;-79
2021/11/26 04:40:13;;;;;;;68.35;21.38;;;;;;;;;;5044868;28;20111;-79
2021/11/26 04:42:42;;;;;;;72.80;21.65;;;;;;;;;;5044904;28;20053;-80
2021/11/26 04:45:11;;;;;;;84.45;21.48;;;;;;;;;;5042543;28;20049;-79
2021/11/26 04:47:38;;;;;;;75.47;18.80;;;;;;;;;;5040763;28;20046;-80
2021/11/26 04:50:07;;;;;;;71.30;20.17;;;;;;;;;;5039623;28;20041;-80
2021/11/26 04:52:34;;;;;;;70.22;20.00;;;;;;;;;;5042619;28;20045;-81
2021/11/26 04:55:02;;;;;;;74.00;21.77;;;;;;;;;;5043378;28;20120;-81
2021/11/26 04:57:29;;;;;;;76.43;20.83;;;;;;;;;;5039465;28;20103;-81
2021/11/26 04:59:56;;;;;;;70.38;21.40;;;;;;;;;;5043948;28;20049;-81
2021/11/26 05:02:23;;;;;;;73.78;20.35;;;;;;;;;;5043993;28;20060;-80
2021/11/26 05:04:50;;;;;;;70.85;18.30;;;;;;;;;;5042019;28;20041;-81
2021/11/26 05:07:19;;;;;;;76.45;19.85;;;;;;;;;;5038054;28;20046;-81
2021/11/26 05:09:46;;;;;;;58.95;18.98;;;;;;;;;;5036216;28;20041;-81
2021/11/26 05:12:15;;;;;;;65.18;18.67;;;;;;;;;;5042620;28;20045;-79
2021/11/26 05:14:41;;;;;;;67.13;20.42;;;;;;;;;;5044354;28;20055;-79
2021/11/26 05:17:08;;;;;;;68.40;17.10;;;;;;;;;;5045279;28;20057;-80
2021/11/26 05:19:35;;;;;;;57.40;17.42;;;;;;;;;;5043542;28;20099;-80
2021/11/26 05:22:02;;;;;;;68.95;18.45;;;;;;;;;;5041877;28;20045;-79
2021/11/26 05:24:28;;;;;;;64.97;20.23;;;;;;;;;;5043006;28;20046;-80
2021/11/26 05:26:55;;;;;;;63.30;17.48;;;;;;;;;;5037743;28;20111;-80
2021/11/26 05:29:23;;;;;;;62.22;20.15;;;;;;;;;;5035351;28;20045;-81
2021/11/26 05:31:50;;;;;;;65.63;17.65;;;;;;;;;;5035802;28;20048;-81
2021/11/26 05:34:17;;;;;;;57.65;18.58;;;;;;;;;;5036066;28;20049;-82
2021/11/26 05:36:44;;;;;;;68.75;18.42;;;;;;;;;;5036135;28;20042;-81
2021/11/26 05:39:11;;;;;;;68.95;19.58;;;;;;;;;;5035559;28;20049;-81
2021/11/26 05:41:37;;;;;;;64.68;17.42;;;;;;;;;;5036069;28;20064;-81
2021/11/26 05:44:05;;;;;;;63.15;15.63;;;;;;;;;;5035394;28;20053;-81
2021/11/26 05:46:33;;;;;;;62.25;16.67;;;;;;;;;;5036478;28;20057;-80
2021/11/26 05:49:00;;;;;;;68.53;19.50;;;;;;;;;;5035531;28;20463;-80
2021/11/26 05:51:30;;;;;;;56.25;15.98;;;;;;;;;;5035488;28;20053;-79
2021/11/26 05:53:58;;;;;;;67.47;18.25;;;;;;;;;;5034751;28;20060;-81
2021/11/26 05:56:28;;;;;;;75.35;19.98;;;;;;;;;;5035689;28;20049;-81
2021/11/26 05:58:58;;;;;;;62.50;18.25;;;;;;;;;;5035157;28;20049;-80
2021/11/26 06:01:28;;;;;;;61.63;18.30;;;;;;;;;;5035955;28;20049;-81
2021/11/26 06:04:04;;;;;;;64.22;19.75;;;;;;;;;;5037643;28;20053;-80
2021/11/26 06:06:30;;;;;;;71.03;20.90;;;;;;;;;;5038564;28;20514;-82
2021/11/26 06:09:06;;;;;;;72.68;20.48;;;;;;;;;;5036678;28;20503;-82
2021/11/26 06:14:21;;;;;;;72.55;19.08;;;;;;;;;;5036415;28;20053;-81
2021/11/26 06:16:48;;;;;;;67.88;17.48;;;;;;;;;;5036024;28;20103;-80
2021/11/26 06:19:19;;;;;;;65.53;18.63;;;;;;;;;;5035663;28;20108;-81
2021/11/26 06:21:59;;;;;;;58.75;16.83;;;;;;;;;;5036637;28;20042;-81
2021/11/26 06:24:32;;;;;;;61.80;16.63;;;;;;;;;;5036430;28;20085;-81
2021/11/26 06:26:58;;;;;;;55.50;17.55;;;;;;;;;;5062260;23;20048;-61
2021/11/26 06:29:26;;;;;;;58.38;17.75;;;;;;;;;;5031447;28;20046;-62
2021/11/26 06:31:53;;;;;;;58.67;16.58;;;;;;;;;;5031600;28;20080;-61
2021/11/26 06:34:21;;;;;;;60.85;16.17;;;;;;;;;;5032192;28;20056;-62
2021/11/26 06:36:48;;;;;;;62.92;16.50;;;;;;;;;;5032418;28;20383;-62
2021/11/26 06:39:15;;;;;;;64.45;18.67;;;;;;;;;;5031959;28;20057;-62
2021/11/26 06:41:42;;;;;;;66.85;17.48;;;;;;;;;;5032100;28;20057;-62
2021/11/26 06:44:09;;;;;;;61.42;17.02;;;;;;;;;;5032092;28;20068;-61
2021/11/26 06:46:36;;;;;;;61.92;18.00;;;;;;;;;;5032604;28;20413;-61
2021/11/26 06:49:04;;;;;;;62.80;17.42;;;;;;;;;;5031928;28;20050;-62
2021/11/26 06:51:32;;;;;;;67.78;17.10;;;;;;;;;;5032145;28;20494;-62
2021/11/26 06:53:59;;;;;;;58.50;17.02;;;;;;;;;;5032023;28;20410;-62
2021/11/26 06:56:27;;;;;;;66.28;18.30;;;;;;;;;;5032080;28;20136;-62
2021/11/26 06:58:58;;;;;;;62.75;17.38;;;;;;;;;;5034550;28;20049;-62
2021/11/26 07:01:24;;;;;;;;;;;;;;;;;;5036068;28;20053;-62
2021/11/26 07:03:51;;;;;;;68.32;18.95;;;;;;;;;;5035758;28;19924;-62
2021/11/26 07:06:18;;;;;;;71.63;21.45;;;;;;;;;;5035663;28;20053;-62
2021/11/26 07:08:47;;;;;;;58.00;17.98;;;;;;;;;;5035589;28;20124;-62
2021/11/26 07:11:14;;;;;;;62.40;17.33;;;;;;;;;;5035680;28;20050;-62
2021/11/26 07:13:40;;;;;;;61.33;15.57;;;;;;;;;;5035592;28;20061;-62
2021/11/26 07:16:07;;;;;;;57.80;16.55;;;;;;;;;;5035583;28;20380;-61
2021/11/26 07:18:34;;;;;;;62.35;17.35;;;;;;;;;;5035324;28;20132;-62
2021/11/26 07:21:02;;;;;;;54.78;18.05;;;;;;;;;;5035444;28;20062;-62
2021/11/26 07:23:28;;;;;;;64.63;18.38;;;;;;;;;;5035645;28;20355;-62
2021/11/26 07:25:57;;;;;;;65.22;17.77;;;;;;;;;;5035448;28;20075;-61
2021/11/26 07:28:24;;;;;;;63.88;15.55;;;;;;;;;;5035509;28;20056;-62
2021/11/26 07:30:51;;;;;;;63.90;19.98;;;;;;;;;;5035088;28;20135;-61
2021/11/26 07:33:18;;;;;;;73.22;18.33;;;;;;;;;;5035279;28;20052;-61
2021/11/26 07:35:45;;;;;;;56.15;17.52;;;;;;;;;;5035079;28;20054;-62
2021/11/26 07:38:12;;;;;;;56.92;17.98;;;;;;;;;;5035104;28;20049;-61
2021/11/26 07:40:39;;;;;;;57.10;17.40;;;;;;;;;;5035144;28;20058;-62
2021/11/26 07:43:07;;;;;;;63.75;18.77;;;;;;;;;;5034783;28;20426;-61
2021/11/26 07:45:34;;;;;;;60.05;16.83;;;;;;;;;;5035021;28;20057;-63
2021/11/26 07:48:01;;;;;;;68.88;18.13;;;;;;;;;;5035045;28;20569;-62
2021/11/26 07:50:28;;;;;;;59.10;17.75;;;;;;;;;;5034833;28;20049;-62
2021/11/26 07:52:55;;;;;;;62.40;18.63;;;;;;;;;;5034992;28;20061;-62
2021/11/26 07:55:22;;;;;;;57.80;16.85;;;;;;;;;;5035051;28;20053;-62
2021/11/26 07:57:50;;;;;;;62.55;16.58;;;;;;;;;;5035035;28;20553;-62
2021/11/26 08:00:18;;;;;;;63.20;16.90;;;;;;;;;;5034617;28;20050;-62
2021/11/26 08:02:45;;;;;;;58.75;15.60;;;;;;;;;;5034715;28;20045;-62
2021/11/26 08:05:13;;;;;;;58.30;15.60;;;;;;;;;;5034647;28;20053;-61
2021/11/26 08:07:40;;;;;;;55.28;13.38;;;;;;;;;;5033662;28;20536;-61
2021/11/26 08:10:09;;;;;;;46.28;15.00;;;;;;;;;;5030775;28;20128;-62
2021/11/26 08:12:37;;;;;;;57.78;14.77;;;;;;;;;;5032925;28;20553;-61
2021/11/26 08:15:05;;;;;;;53.90;14.35;;;;;;;;;;5032386;28;20041;-62
2021/11/26 08:17:33;;;;;;;65.00;18.88;;;;;;;;;;5032299;28;20391;-63
2021/11/26 08:20:00;;;;;;;56.50;16.10;;;;;;;;;;5032653;28;20057;-62
2021/11/26 08:22:27;;;;;;;52.55;15.45;;;;;;;;;;5032261;28;20056;-62
2021/11/26 08:24:54;;;;;;;55.03;17.63;;;;;;;;;;5032681;28;20050;-61
2021/11/26 08:27:21;;;;;;;57.50;17.27;;;;;;;;;;5032022;28;20047;-62
2021/11/26 08:29:48;;;;;;;57.90;16.60;;;;;;;;;;5032173;28;20530;-61
2021/11/26 08:32:15;;;;;;;63.10;18.08;;;;;;;;;;5031909;28;20041;-62
2021/11/26 08:34:43;;;;;;;66.38;18.92;;;;;;;;;;5031892;28;20054;-61
2021/11/26 08:37:10;;;;;;;62.28;18.60;;;;;;;;;;5032118;28;20057;-62
2021/11/26 08:39:37;;;;;;;59.05;16.15;;;;;;;;;;5032018;28;20145;-62
2021/11/26 08:42:04;;;;;;;67.28;21.23;;;;;;;;;;5031848;28;20053;-62
2021/11/26 08:44:32;;;;;;;61.75;17.77;;;;;;;;;;5031913;28;20057;-62
2021/11/26 08:46:59;;;;;;;62.10;17.38;;;;;;;;;;5031949;28;20429;-62
2021/11/26 08:49:26;;;;;;;63.95;16.55;;;;;;;;;;5032025;28;20046;-60
2021/11/26 08:51:56;;;;;;;61.58;17.27;;;;;;;;;;5011908;28;20129;-62
2021/11/26 08:54:24;;;;;;;66.82;17.65;;;;;;;;;;5015722;28;20132;-62
2021/11/26 08:56:54;;;;;;;61.97;18.00;;;;;;;;;;5031458;28;20107;-61
2021/11/26 08:59:23;;;;;;;58.70;16.23;;;;;;;;;;5031771;28;20472;-61
2021/11/26 09:01:51;;;;;;;66.32;17.23;;;;;;;;;;5031491;28;20111;-61
2021/11/26 09:04:20;;;;;;;61.17;15.70;;;;;;;;;;5031641;28;20053;-61
2021/11/26 09:06:48;;;;;;;65.68;18.17;;;;;;;;;;5011420;28;20050;-60
2021/11/26 09:09:17;;;;;;;58.33;16.48;;;;;;;;;;5011419;28;20148;-61
2021/11/26 09:11:43;;;;;;;62.92;16.30;;;;;;;;;;5012188;28;20565;-60
2021/11/26 09:14:10;;;;;;;58.05;16.50;;;;;;;;;;5030978;28;20041;-61
2021/11/26 09:16:37;;;;;;;59.15;17.17;;;;;;;;;;5030987;28;20050;-61
2021/11/26 09:19:05;;;;;;;65.75;15.77;;;;;;;;;;5030560;28;20038;-60
2021/11/26 09:21:33;;;;;;;61.00;17.20;;;;;;;;;;5030247;28;20072;-60
2021/11/26 09:24:00;;;;;;;54.67;15.23;;;;;;;;;;5030536;28;20049;-60
2021/11/26 09:26:29;;;;;;;45.60;13.88;;;;;;;;;;5030698;28;20068;-60
2021/11/26 09:28:55;;;;;;;57.65;16.33;;;;;;;;;;5030767;28;20395;-60
2021/11/26 09:31:22;;;;;;;64.90;17.95;;;;;;;;;;5030759;28;20415;-61
2021/11/26 09:33:52;;;;;;;61.15;17.27;;;;;;;;;;5030419;28;20049;-61
2021/11/26 09:36:20;;;;;;;57.25;17.30;;;;;;;;;;5031121;28;20540;-61
2021/11/26 09:38:46;;;;;;;54.17;15.23;;;;;;;;;;5031248;28;20177;-61
2021/11/26 09:41:15;;;;;;;59.92;16.98;;;;;;;;;;5030560;28;20053;-61
2021/11/26 09:43:46;;;;;;;61.83;16.98;;;;;;;;;;5030494;28;20048;-59
2021/11/26 09:46:13;;;;;;;62.33;16.67;;;;;;;;;;5031123;28;20060;-61
2021/11/26 09:48:40;;;;;;;62.28;15.93;;;;;;;;;;5030634;28;20148;-60
2021/11/26 09:51:07;;;;;;;67.55;17.48;;;;;;;;;;5031033;28;20052;-61
2021/11/26 09:53:35;;;;;;;67.93;19.23;;;;;;;;;;5030340;28;20053;-60
2021/11/26 09:56:05;;;;;;;72.65;19.58;;;;;;;;;;5030392;28;20045;-61
2021/11/26 09:58:34;;;;;;;73.07;20.50;;;;;;;;;;5030378;28;20049;-60
2021/11/26 10:01:05;;;;;;;64.43;17.92;;;;;;;;;;5030205;28;20172;-60
2021/11/26 10:03:41;;;;;;;66.75;19.67;;;;;;;;;;5030127;28;20080;-61
2021/11/26 10:06:23;;;;;;;70.57;17.35;;;;;;;;;;5029886;28;20068;-60
2021/11/26 10:08:58;;;;;;;70.05;18.20;;;;;;;;;;5029907;28;20566;-62
2021/11/26 10:11:26;;;;;;;68.43;16.45;;;;;;;;;;5027986;28;20041;-62
2021/11/26 10:13:53;;;;;;;71.38;19.17;;;;;;;;;;5029507;28;20042;-61
2021/11/26 10:16:22;;;;;;;62.72;16.85;;;;;;;;;;5029268;28;20041;-61
2021/11/26 10:18:51;;;;;;;70.22;17.30;;;;;;;;;;5030368;28;20049;-61
2021/11/26 10:21:20;;;;;;;61.95;17.42;;;;;;;;;;5030413;28;20060;-62
2021/11/26 10:23:48;;;;;;;70.55;18.15;;;;;;;;;;5030318;28;20509;-62
2021/11/26 10:26:18;;;;;;;63.63;18.05;;;;;;;;;;5030350;28;20112;-61
2021/11/26 10:28:49;;;;;;;73.47;18.02;;;;;;;;;;5028869;28;20041;-61
2021/11/26 10:31:26;;;;;;;72.75;16.63;;;;;;;;;;5029972;28;20474;-61
2021/11/26 10:33:55;;;;;;;67.03;17.42;;;;;;;;;;5032867;28;20053;-61
2021/11/26 10:36:22;;;;;;;63.13;17.50;;;;;;;;;;5034184;28;20045;-61
2021/11/26 10:38:49;;;;;;;73.00;19.90;;;;;;;;;;5034188;28;20494;-61
2021/11/26 10:41:23;;;;;;;65.80;16.60;;;;;;;;;;5034194;28;20057;-61
2021/11/26 10:43:54;;;;;;;61.78;16.63;;;;;;;;;;5027133;28;20085;-60
2021/11/26 11:00:20;;;;;;;58.28;16.67;;;;;;;;;;5033782;28;20056;-61
2021/11/26 11:02:48;;;;;;;66.72;15.85;;;;;;;;;;5033643;28;20155;-62
2021/11/26 11:05:26;;;;;;;54.05;15.30;;;;;;;;;;5033663;28;20054;-61
2021/11/26 11:07:53;;;;;;;72.57;17.27;;;;;;;;;;5033851;28;20053;-61
2021/11/26 11:10:30;;;;;;;61.08;15.88;;;;;;;;;;5033600;28;20052;-61
2021/11/26 11:13:00;;;;;;;63.60;17.35;;;;;;;;;;5027994;28;20519;-61
2021/11/26 11:15:27;;;;;;;62.33;16.15;;;;;;;;;;5034186;28;20041;-61
2021/11/26 11:17:54;;;;;;;52.63;14.85;;;;;;;;;;5033556;28;20052;-60
2021/11/26 11:20:25;;;;;;;55.15;15.00;;;;;;;;;;5033577;28;20466;-61
2021/11/26 11:22:52;;;;;;;50.47;14.80;;;;;;;;;;5033263;28;20045;-61
2021/11/26 11:25:25;;;;;;;59.22;14.73;;;;;;;;;;5033399;28;20415;-63
2021/11/26 11:27:53;;;;;;;55.35;16.17;;;;;;;;;;5033045;28;20288;-65
2021/11/26 11:30:20;;;;;;;48.65;15.25;;;;;;;;;;5033611;28;20503;-65
2021/11/26 11:32:48;;;;;;;51.95;15.07;;;;;;;;;;5033436;28;20482;-61
2021/11/26 11:35:16;;;;;;;49.80;13.40;;;;;;;;;;5033298;28;20136;-61
2021/11/26 11:37:45;;;;;;;52.50;15.63;;;;;;;;;;5032686;28;20049;-62
2021/11/26 11:40:12;;;;;;;51.42;13.75;;;;;;;;;;5032948;28;20049;-61
2021/11/26 11:42:42;;;;;;;58.88;17.40;;;;;;;;;;5032903;28;20056;-62
2021/11/26 11:45:12;;;;;;;59.10;15.30;;;;;;;;;;5033046;28;20495;-60
2021/11/26 11:47:50;;;;;;;62.40;15.27;;;;;;;;;;5032769;28;20048;-61
2021/11/26 11:50:19;;;;;;;55.05;15.80;;;;;;;;;;5032749;28;20132;-62
2021/11/26 11:52:52;;;;;;;55.58;15.13;;;;;;;;;;5032836;28;20158;-61
2021/11/26 11:55:31;;;;;;;47.60;13.70;;;;;;;;;;5024958;28;20052;-61
2021/11/26 11:58:11;;;;;;;47.92;13.60;;;;;;;;;;5030012;28;20056;-61
2021/11/26 12:00:39;;;;;;;47.03;13.05;;;;;;;;;;5023201;28;20058;-61
2021/11/26 12:03:12;;;;;;;48.63;14.98;;;;;;;;;;5032498;28;20418;-61
2021/11/26 12:05:40;;;;;;;51.92;17.60;;;;;;;;;;5032584;28;20572;-62
2021/11/26 12:08:11;;;;;;;49.60;14.35;;;;;;;;;;5032440;28;20073;-62
2021/11/26 12:10:46;;;;;;;47.20;14.20;;;;;;;;;;5032472;28;20088;-61
2021/11/26 12:13:25;;;;;;;47.33;14.50;;;;;;;;;;5032255;28;20884;-61
2021/11/26 12:16:05;;;;;;;47.00;12.32;;;;;;;;;;5032700;28;20061;-62
2021/11/26 12:18:40;;;;;;;39.60;12.25;;;;;;;;;;5032508;28;20049;-62
2021/11/26 12:21:08;;;;;;;52.38;14.68;;;;;;;;;;5032976;28;20061;-62
2021/11/26 12:23:49;;;;;;;51.47;16.50;;;;;;;;;;5032282;28;20053;-61
2021/11/26 12:26:19;;;;;;;45.35;12.25;;;;;;;;;;5031470;28;20494;-59
2021/11/26 12:28:49;;;;;;;49.85;15.20;;;;;;;;;;5032831;28;20160;-61
2021/11/26 12:31:20;;;;;;;47.22;12.85;;;;;;;;;;5032011;28;20109;-61
2021/11/26 12:33:56;;;;;;;;;;;;;;;;;;5032360;28;20059;-60
2021/11/26 12:36:23;;;;;;;45.28;10.80;;;;;;;;;;5032197;28;19928;-62
2021/11/26 12:38:54;;;;;;;36.25;10.82;;;;;;;;;;5030694;28;20517;-63
2021/11/26 12:41:30;;;;;;;39.20;11.38;;;;;;;;;;5031927;28;20061;-63
2021/11/26 12:43:57;;;;;;;38.85;12.05;;;;;;;;;;5031871;28;20064;-65
2021/11/26 12:46:25;;;;;;;37.22;12.02;;;;;;;;;;5012144;28;20054;-61
2021/11/26 12:49:07;;;;;;;43.80;14.10;;;;;;;;;;5012541;28;20406;-61
2021/11/26 12:51:34;;;;;;;43.50;12.52;;;;;;;;;;5011876;28;20050;-61
2021/11/26 12:54:05;;;;;;;52.45;13.88;;;;;;;;;;5011974;28;20455;-61
2021/11/26 12:56:33;;;;;;;45.35;11.63;;;;;;;;;;5015725;28;20049;-62
2021/11/26 12:59:00;;;;;;;43.67;12.98;;;;;;;;;;5031462;28;20156;-61
2021/11/26 13:01:30;;;;;;;38.42;12.32;;;;;;;;;;5031826;28;20406;-62
2021/11/26 13:03:57;;;;;;;44.88;13.07;;;;;;;;;;5031311;28;20049;-60
2021/11/26 13:06:27;;;;;;;38.55;12.40;;;;;;;;;;5031588;28;20049;-62
2021/11/26 13:08:59;;;;;;;36.25;10.77;;;;;;;;;;5031645;28;20455;-62
2021/11/26 13:11:28;;;;;;;38.72;10.50;;;;;;;;;;5031342;28;20046;-60
2021/11/26 13:14:03;;;;;;;43.78;12.07;;;;;;;;;;5031740;28;20054;-61
2021/11/26 13:16:30;;;;;;;36.13;10.77;;;;;;;;;;5031854;28;20495;-61
2021/11/26 13:18:57;;;;;;;40.70;11.70;;;;;;;;;;5031151;28;20410;-62
2021/11/26 13:21:24;;;;;;;38.35;11.75;;;;;;;;;;5030977;28;20053;-62
2021/11/26 13:23:51;;;;;;;38.53;11.85;;;;;;;;;;5031258;28;20049;-62
2021/11/26 13:26:19;;;;;;;46.92;12.35;;;;;;;;;;5031101;28;20045;-61
2021/11/26 13:28:50;;;;;;;38.75;11.60;;;;;;;;;;5031174;28;20049;-62
2021/11/26 13:31:18;;;;;;;35.70;10.63;;;;;;;;;;5031480;28;20057;-61
2021/11/26 13:33:48;;;;;;;39.38;12.40;;;;;;;;;;5030602;28;20061;-62
2021/11/26 13:36:17;;;;;;;44.30;13.98;;;;;;;;;;5031387;28;20097;-62
2021/11/26 13:38:46;;;;;;;44.92;13.48;;;;;;;;;;5031107;28;20084;-62
2021/11/26 13:41:16;;;;;;;38.90;12.48;;;;;;;;;;5031274;28;20073;-60
2021/11/26 13:43:48;;;;;;;42.25;12.77;;;;;;;;;;5031377;28;20058;-60
2021/11/26 13:46:22;;;;;;;39.67;12.85;;;;;;;;;;5010935;28;20045;-61
2021/11/26 13:48:51;;;;;;;50.17;17.48;;;;;;;;;;5011226;28;20099;-61
2021/11/26 13:51:20;;;;;;;46.90;16.10;;;;;;;;;;5011173;28;20054;-62
2021/11/26 13:53:50;;;;;;;42.97;14.32;;;;;;;;;;5028588;28;20045;-62
2021/11/26 13:56:18;;;;;;;41.05;13.75;;;;;;;;;;5030987;28;20049;-62
2021/11/26 13:58:56;;;;;;;41.38;13.23;;;;;;;;;;5030704;28;20046;-62
2021/11/26 14:01:25;;;;;;;41.40;13.43;;;;;;;;;;5031113;28;20698;-62
2021/11/26 14:03:57;;;;;;;45.67;12.35;;;;;;;;;;5030805;28;20061;-62
2021/11/26 14:06:25;;;;;;;37.20;12.30;;;;;;;;;;5030620;28;20119;-62
2021/11/26 14:08:54;;;;;;;40.58;13.45;;;;;;;;;;5030884;28;20046;-62
2021/11/26 14:11:37;;;;;;;43.55;13.57;;;;;;;;;;5030071;28;20045;-61
2021/11/26 14:14:08;;;;;;;44.28;12.60;;;;;;;;;;5030656;28;20051;-62
2021/11/26 14:16:36;;;;;;;42.60;13.52;;;;;;;;;;5030697;28;20056;-61
2021/11/26 14:19:05;;;;;;;38.38;12.95;;;;;;;;;;5030624;28;20060;-61
2021/11/26 14:21:33;;;;;;;49.05;12.88;;;;;;;;;;5030342;28;20053;-61
2021/11/26 14:24:03;;;;;;;44.15;13.48;;;;;;;;;;5030632;28;20406;-61
2021/11/26 14:26:33;;;;;;;43.70;13.18;;;;;;;;;;5030152;28;20046;-61
2021/11/26 14:29:07;;;;;;;45.75;15.02;;;;;;;;;;5030091;28;20075;-60
2021/11/26 14:31:35;;;;;;;43.55;12.52;;;;;;;;;;5030432;28;20050;-61
2021/11/26 14:34:03;;;;;;;40.97;13.95;;;;;;;;;;5030161;28;20056;-61
2021/11/26 14:36:32;;;;;;;42.85;13.57;;;;;;;;;;5030370;28;20085;-61
2021/11/26 14:38:59;;;;;;;38.65;11.80;;;;;;;;;;5030457;28;20065;-60
2021/11/26 14:41:26;;;;;;;45.53;13.00;;;;;;;;;;5029971;28;20463;-62
2021/11/26 14:44:07;;;;;;;43.85;15.27;;;;;;;;;;5030406;28;20050;-62
2021/11/26 14:46:47;;;;;;;48.03;14.10;;;;;;;;;;5030180;28;20065;-61